Time;durP1;ratioP1;P1;durP2;ratioP2;P2;SDS_P1;SDS_P2;PMS_P1;PMS_P2;Temp;Humidity;BMP_temperature;BMP_pressure;BME280_temperature;BME280_humidity;BME280_pressure;Samples;Min_cycle;Max_cycle;Signal;HPM_P1;HPM_P2
2021/09/17 00:01:34;;;;;;;5.55;3.22;;;16.40;99.90;;;;;;7407530;19;20018;-86
2021/09/17 00:04:03;;;;;;;6.35;4.00;;;16.30;99.90;;;;;;7406117;19;20015;-86
2021/09/17 00:06:32;;;;;;;7.18;3.53;;;16.30;99.90;;;;;;7407535;19;20056;-88
2021/09/17 00:09:05;;;;;;;7.78;4.07;;;16.20;99.90;;;;;;7406802;19;20006;-88
2021/09/17 00:11:34;;;;;;;5.38;3.50;;;16.10;99.90;;;;;;7403344;19;20460;-88
2021/09/17 00:14:06;;;;;;;6.55;4.22;;;16.10;99.90;;;;;;7404287;19;20007;-86
2021/09/17 00:16:36;;;;;;;6.40;3.75;;;16.10;99.90;;;;;;7405771;19;20022;-85
2021/09/17 00:19:05;;;;;;;7.03;3.40;;;16.00;99.90;;;;;;7407377;19;20022;-86
2021/09/17 00:21:35;;;;;;;4.97;3.28;;;16.00;99.90;;;;;;7402489;19;20070;-86
2021/09/17 00:24:04;;;;;;;6.38;3.60;;;16.00;99.90;;;;;;7404571;19;20015;-86
2021/09/17 00:26:34;;;;;;;6.68;3.38;;;16.00;99.90;;;;;;7402007;19;20420;-88
2021/09/17 00:29:06;;;;;;;9.07;3.20;;;16.00;99.90;;;;;;7406202;19;20014;-83
2021/09/17 00:31:35;;;;;;;5.05;3.47;;;16.00;99.90;;;;;;7419225;19;20018;-82
2021/09/17 00:34:07;;;;;;;22.08;3.85;;;15.90;99.90;;;;;;7412364;19;20452;-90
2021/09/17 00:36:37;;;;;;;5.53;3.55;;;16.00;99.90;;;;;;7408041;19;20015;-89
2021/09/17 00:39:08;;;;;;;5.30;3.08;;;15.90;99.90;;;;;;7403214;19;20003;-89
2021/09/17 00:41:38;;;;;;;9.20;3.35;;;15.90;99.90;;;;;;7408443;19;20022;-91
2021/09/17 00:44:10;;;;;;;7.28;3.45;;;15.90;99.90;;;;;;7401989;19;20015;-89
2021/09/17 00:46:40;;;;;;;9.82;3.60;;;15.90;99.90;;;;;;7402123;19;20046;-92
2021/09/17 00:49:12;;;;;;;6.65;3.55;;;15.90;99.90;;;;;;7404018;19;20011;-87
2021/09/17 00:51:42;;;;;;;6.82;3.45;;;15.90;99.90;;;;;;7410396;19;20011;-83
2021/09/17 00:54:11;;;;;;;7.88;4.38;;;15.90;99.90;;;;;;7406334;19;20026;-85
2021/09/17 00:56:40;;;;;;;6.82;4.05;;;15.90;99.90;;;;;;7404428;19;20056;-90
2021/09/17 00:59:15;;;;;;;5.60;4.07;;;15.90;99.90;;;;;;7402910;19;20070;-84
2021/09/17 01:01:47;;;;;;;8.93;4.72;;;15.80;99.90;;;;;;7407305;19;20070;-88
2021/09/17 01:04:17;;;;;;;10.80;4.63;;;15.80;99.90;;;;;;7404357;19;20007;-86
2021/09/17 01:06:46;;;;;;;7.63;4.30;;;15.90;99.90;;;;;;7404252;19;20014;-89
2021/09/17 01:09:16;;;;;;;7.68;4.50;;;15.90;99.90;;;;;;7403034;19;20026;-88
2021/09/17 01:11:46;;;;;;;8.38;5.05;;;15.90;99.90;;;;;;7400546;19;20006;-88
2021/09/17 01:14:21;;;;;;;9.05;4.97;;;15.90;99.90;;;;;;7405620;19;20013;-84
2021/09/17 01:16:51;;;;;;;8.27;4.93;;;15.90;99.90;;;;;;7411880;19;20065;-86
2021/09/17 01:19:23;;;;;;;9.20;4.32;;;15.90;99.90;;;;;;7416243;19;20029;-84
2021/09/17 01:21:59;;;;;;;8.85;4.78;;;15.90;99.90;;;;;;7408524;19;20042;-89
2021/09/17 01:24:28;;;;;;;7.45;4.88;;;15.80;99.90;;;;;;7401936;19;20118;-86
2021/09/17 01:27:01;;;;;;;12.02;4.60;;;15.90;99.90;;;;;;7404738;19;20048;-90
2021/09/17 01:29:31;;;;;;;7.72;4.90;;;15.90;99.90;;;;;;7404452;19;20433;-89
2021/09/17 01:32:00;;;;;;;8.77;5.72;;;15.90;99.90;;;;;;7405681;19;20018;-87
2021/09/17 01:34:30;;;;;;;8.25;5.10;;;15.90;99.90;;;;;;7407880;19;20017;-84
2021/09/17 01:37:02;;;;;;;9.38;5.32;;;15.90;99.90;;;;;;7429184;19;20006;-92
2021/09/17 01:39:35;;;;;;;8.95;5.22;;;15.80;99.90;;;;;;7377949;19;20030;-86
2021/09/17 01:47:59;;;;;;;10.45;5.70;;;15.70;99.90;;;;;;7402403;19;20033;-84
2021/09/17 01:50:28;;;;;;;13.90;6.05;;;15.70;99.90;;;;;;7430796;19;20003;-87
2021/09/17 01:53:00;;;;;;;11.18;6.00;;;15.70;99.90;;;;;;7425827;19;20509;-88
2021/09/17 01:55:29;;;;;;;9.18;6.13;;;15.60;99.90;;;;;;7426630;19;20035;-87
2021/09/17 01:58:01;;;;;;;10.55;5.78;;;15.60;99.90;;;;;;7421686;19;20010;-88
2021/09/17 02:00:31;;;;;;;10.68;5.72;;;15.70;99.90;;;;;;7426656;19;20042;-89
2021/09/17 02:03:01;;;;;;;10.30;5.93;;;15.70;99.90;;;;;;7422785;19;20010;-88
2021/09/17 02:05:31;;;;;;;11.93;6.40;;;15.70;99.90;;;;;;7420261;19;20017;-89
2021/09/17 02:08:03;;;;;;;11.45;6.60;;;15.70;99.90;;;;;;7425877;19;20027;-87
2021/09/17 02:10:33;;;;;;;12.77;6.57;;;15.70;99.90;;;;;;7416107;19;20014;-87
2021/09/17 02:13:05;;;;;;;10.35;6.47;;;15.60;99.90;;;;;;7406237;19;20017;-88
2021/09/17 02:15:34;;;;;;;13.43;6.55;;;15.70;99.90;;;;;;7412332;19;20026;-87
2021/09/17 02:18:04;;;;;;;12.80;6.63;;;15.70;99.90;;;;;;7403737;19;20356;-88
2021/09/17 02:20:33;;;;;;;11.35;6.93;;;15.70;99.90;;;;;;7406933;19;20440;-89
2021/09/17 02:23:05;;;;;;;11.57;6.93;;;15.60;99.90;;;;;;7405419;19;20050;-89
2021/09/17 02:25:34;;;;;;;10.65;6.82;;;15.70;99.90;;;;;;7407753;19;20010;-86
2021/09/17 02:28:04;;;;;;;10.27;6.95;;;15.70;99.90;;;;;;7404688;19;20003;-88
2021/09/17 02:30:33;;;;;;;13.35;7.00;;;15.70;99.90;;;;;;7407834;19;20010;-90
2021/09/17 02:33:03;;;;;;;14.02;7.43;;;15.70;99.90;;;;;;7431416;19;20013;-89
2021/09/17 02:35:32;;;;;;;13.57;7.70;;;15.60;99.90;;;;;;7427276;19;20062;-92
2021/09/17 02:38:01;;;;;;;12.70;7.82;;;15.70;99.90;;;;;;7403591;19;20461;-90
2021/09/17 02:40:36;;;;;;;13.80;7.70;;;15.70;99.90;;;;;;7418494;19;20018;-90
2021/09/17 02:43:05;;;;;;;15.63;8.77;;;15.70;99.90;;;;;;7406524;19;20435;-90
2021/09/17 02:45:37;;;;;;;13.88;8.35;;;15.70;99.90;;;;;;7398718;19;20432;-88
2021/09/17 02:48:07;;;;;;;15.02;9.63;;;15.60;99.90;;;;;;7397262;19;20339;-89
2021/09/17 02:50:39;;;;;;;15.07;8.98;;;15.70;99.90;;;;;;7401899;19;20022;-88
2021/09/17 02:53:08;;;;;;;16.17;9.25;;;15.70;99.90;;;;;;7398966;19;20413;-91
2021/09/17 02:55:40;;;;;;;13.55;8.63;;;15.70;99.90;;;;;;7409093;19;20035;-90
2021/09/17 02:58:10;;;;;;;16.75;9.60;;;15.60;99.90;;;;;;7412714;19;20003;-93
2021/09/17 03:00:42;;;;;;;16.77;9.65;;;15.60;99.90;;;;;;7402644;19;20013;-92
2021/09/17 03:03:15;;;;;;;16.63;10.00;;;15.60;99.90;;;;;;7402957;19;20010;-87
2021/09/17 03:05:47;;;;;;;16.60;9.52;;;15.60;99.90;;;;;;7408186;19;20014;-88
2021/09/17 03:08:17;;;;;;;17.63;10.10;;;15.60;99.90;;;;;;7410247;19;20336;-88
2021/09/17 03:10:52;;;;;;;15.65;8.80;;;15.60;99.90;;;;;;7402409;19;20105;-92
2021/09/17 03:13:21;;;;;;;16.95;10.35;;;15.60;99.90;;;;;;7411152;19;20026;-93
2021/09/17 03:15:50;;;;;;;18.02;10.65;;;15.50;99.90;;;;;;7405673;19;20010;-92
2021/09/17 03:18:20;;;;;;;16.67;9.95;;;15.60;99.90;;;;;;7398831;19;20014;-91
2021/09/17 03:20:51;;;;;;;15.13;9.90;;;15.60;99.90;;;;;;7399449;19;20014;-91
2021/09/17 03:23:23;;;;;;;15.73;10.15;;;15.60;99.90;;;;;;7401078;19;20078;-91
2021/09/17 03:25:54;;;;;;;17.88;10.68;;;15.60;99.90;;;;;;7401204;19;20047;-91
2021/09/17 03:28:24;;;;;;;16.75;9.98;;;15.60;99.90;;;;;;7397205;19;20473;-90
2021/09/17 03:30:56;;;;;;;17.00;11.02;;;15.60;99.90;;;;;;7402520;19;20057;-90
2021/09/17 03:33:25;;;;;;;16.17;9.25;;;15.60;99.90;;;;;;7399357;19;20018;-91
2021/09/17 03:35:55;;;;;;;18.38;10.05;;;15.60;99.90;;;;;;7401236;19;20010;-91
2021/09/17 03:38:24;;;;;;;13.25;9.00;;;15.60;99.90;;;;;;7393872;19;20440;-91
2021/09/17 03:40:58;;;;;;;15.38;9.05;;;15.60;99.90;;;;;;7400426;19;20413;-91
2021/09/17 03:43:28;;;;;;;13.48;8.75;;;15.60;99.90;;;;;;7395575;19;20017;-91
2021/09/17 03:45:57;;;;;;;14.25;9.27;;;15.50;99.90;;;;;;7398474;19;20014;-90
2021/09/17 03:48:27;;;;;;;14.20;9.77;;;15.50;99.90;;;;;;7399628;19;20018;-90
2021/09/17 03:50:56;;;;;;;15.80;9.55;;;15.50;99.90;;;;;;7406671;19;20017;-91
2021/09/17 03:53:26;;;;;;;12.95;8.35;;;15.50;99.90;;;;;;7405456;19;20023;-91
2021/09/17 03:55:58;;;;;;;18.02;9.07;;;15.60;99.90;;;;;;7402870;19;20007;-89
2021/09/17 03:58:27;;;;;;;20.35;9.18;;;15.50;99.90;;;;;;7409044;19;20033;-88
2021/09/17 04:00:56;;;;;;;17.90;10.77;;;15.50;99.90;;;;;;7404614;19;20010;-87
2021/09/17 04:03:28;;;;;;;15.00;9.32;;;15.40;99.90;;;;;;7414173;19;20010;-85
2021/09/17 04:05:58;;;;;;;20.58;10.60;;;15.40;99.90;;;;;;7431233;19;20026;-87
2021/09/17 04:08:27;;;;;;;15.90;9.70;;;15.30;99.90;;;;;;7404730;19;20014;-88
2021/09/17 04:10:59;;;;;;;15.45;9.70;;;15.30;99.90;;;;;;7403157;19;20011;-90
2021/09/17 04:13:29;;;;;;;14.05;9.10;;;15.30;99.90;;;;;;7406613;19;20316;-90
2021/09/17 04:15:58;;;;;;;14.25;9.07;;;15.30;99.90;;;;;;7405793;19;20015;-90
2021/09/17 04:18:27;;;;;;;18.63;10.50;;;15.30;99.90;;;;;;7405696;19;20456;-90
2021/09/17 04:20:57;;;;;;;16.17;10.05;;;15.40;99.90;;;;;;7410522;19;20015;-91
2021/09/17 04:23:26;;;;;;;15.93;7.90;;;15.50;99.90;;;;;;7414570;19;20014;-90
2021/09/17 04:25:55;;;;;;;12.23;6.97;;;15.40;99.90;;;;;;7411465;19;20044;-87
2021/09/17 04:28:29;;;;;;;15.13;7.55;;;15.40;99.90;;;;;;7407020;19;20025;-89
2021/09/17 04:30:59;;;;;;;11.55;6.70;;;15.50;99.90;;;;;;7402449;19;20011;-90
2021/09/17 04:33:28;;;;;;;13.13;6.65;;;15.40;99.90;;;;;;7404125;19;20074;-91
2021/09/17 04:35:57;;;;;;;12.90;5.88;;;15.50;99.90;;;;;;7410549;19;20017;-90
2021/09/17 04:38:28;;;;;;;12.48;5.53;;;15.50;99.90;;;;;;7410632;19;20007;-92
2021/09/17 04:40:57;;;;;;;10.88;5.85;;;15.50;99.90;;;;;;7405367;19;20014;-90
2021/09/17 04:43:29;;;;;;;10.80;5.03;;;15.40;99.90;;;;;;7404208;19;20029;-90
2021/09/17 04:46:02;;;;;;;7.90;4.80;;;15.50;99.90;;;;;;7403615;19;20022;-89
2021/09/17 04:48:31;;;;;;;10.63;4.60;;;15.40;99.90;;;;;;7403778;19;20366;-89
2021/09/17 04:51:02;;;;;;;11.18;4.93;;;15.30;99.90;;;;;;7402662;19;20325;-91
2021/09/17 04:53:32;;;;;;;10.68;4.30;;;15.40;99.90;;;;;;7407709;19;20046;-90
2021/09/17 04:56:01;;;;;;;10.30;4.38;;;15.50;99.90;;;;;;7405555;19;20324;-91
2021/09/17 04:58:33;;;;;;;10.70;4.20;;;15.40;99.90;;;;;;7398919;19;20044;-89
2021/09/17 05:01:02;;;;;;;9.07;3.90;;;15.30;99.90;;;;;;7407700;19;20463;-88
2021/09/17 05:03:32;;;;;;;7.35;3.60;;;15.30;99.90;;;;;;7404396;19;20461;-89
2021/09/17 05:06:01;;;;;;;7.38;3.65;;;15.20;99.90;;;;;;7407198;19;20036;-90
2021/09/17 05:08:32;;;;;;;11.43;4.93;;;15.30;99.90;;;;;;7404459;19;20455;-90
2021/09/17 05:11:02;;;;;;;12.27;3.88;;;15.30;99.90;;;;;;7403290;19;20014;-88
2021/09/17 05:13:36;;;;;;;6.97;3.70;;;15.30;99.90;;;;;;7400533;19;20025;-88
2021/09/17 05:16:07;;;;;;;10.32;4.40;;;15.30;99.90;;;;;;7402714;19;20014;-89
2021/09/17 05:18:37;;;;;;;9.35;3.83;;;15.20;99.90;;;;;;7401328;19;20075;-87
2021/09/17 05:21:06;;;;;;;6.32;3.90;;;15.30;99.90;;;;;;7401112;19;20007;-87
2021/09/17 05:23:36;;;;;;;10.15;4.32;;;15.30;99.90;;;;;;7409683;19;20019;-90
2021/09/17 05:26:16;;;;;;;11.18;4.03;;;15.50;99.90;;;;;;7415131;19;20446;-90
2021/09/17 05:28:52;;;;;;;16.23;4.72;;;15.50;99.90;;;;;;7413863;19;20007;-90
2021/09/17 05:31:23;;;;;;;11.38;4.40;;;15.60;99.90;;;;;;7405451;19;20011;-90
2021/09/17 05:33:52;;;;;;;9.43;4.03;;;15.60;99.90;;;;;;7405782;19;20074;-89
2021/09/17 05:36:22;;;;;;;8.52;4.45;;;15.60;99.90;;;;;;7402998;19;20020;-90
2021/09/17 05:38:53;;;;;;;7.68;4.25;;;15.50;99.90;;;;;;7398154;19;20424;-89
2021/09/17 05:41:23;;;;;;;10.25;4.78;;;15.40;99.90;;;;;;7403137;19;20030;-89
2021/09/17 05:44:01;;;;;;;8.50;4.45;;;15.50;99.90;;;;;;7403733;19;20021;-90
2021/09/17 05:46:30;;;;;;;9.40;5.05;;;15.50;99.90;;;;;;7399547;19;20106;-91
2021/09/17 05:49:00;;;;;;;9.18;4.80;;;15.60;99.90;;;;;;7408504;19;20034;-89
2021/09/17 05:51:29;;;;;;;10.48;5.18;;;15.60;99.90;;;;;;7410063;19;20015;-89
2021/09/17 05:54:01;;;;;;;10.60;5.47;;;15.60;99.90;;;;;;7403028;19;20017;-89
2021/09/17 05:56:31;;;;;;;8.68;4.75;;;15.60;99.90;;;;;;7404400;19;20404;-90
2021/09/17 05:59:03;;;;;;;10.52;5.28;;;15.60;99.90;;;;;;7404376;19;20034;-89
2021/09/17 06:01:32;;;;;;;10.27;5.35;;;15.50;99.90;;;;;;7419483;19;20017;-89
2021/09/17 06:04:02;;;;;;;10.35;5.53;;;15.30;99.90;;;;;;7405186;19;20294;-90
2021/09/17 06:06:33;;;;;;;15.52;5.72;;;15.20;99.90;;;;;;7404174;19;20014;-89
2021/09/17 06:09:06;;;;;;;8.40;5.32;;;15.10;99.90;;;;;;7401434;19;20019;-88
2021/09/17 06:11:39;;;;;;;8.65;4.97;;;15.00;99.90;;;;;;7399251;19;20014;-89
2021/09/17 06:14:11;;;;;;;11.68;5.15;;;15.00;99.90;;;;;;7400783;19;20022;-90
2021/09/17 06:16:47;;;;;;;9.32;5.13;;;15.10;99.90;;;;;;7399723;19;20045;-88
2021/09/17 06:19:17;;;;;;;8.38;5.30;;;15.10;99.90;;;;;;7398135;19;20086;-88
2021/09/17 06:21:47;;;;;;;7.68;4.55;;;15.20;99.90;;;;;;7401292;19;20010;-87
2021/09/17 06:24:25;;;;;;;9.93;4.55;;;15.20;99.90;;;;;;7401763;19;20010;-87
2021/09/17 06:26:56;;;;;;;10.25;5.10;;;15.20;99.90;;;;;;7402328;19;20014;-88
2021/09/17 06:29:28;;;;;;;9.60;4.90;;;15.20;99.90;;;;;;7402217;19;20449;-88
2021/09/17 06:31:58;;;;;;;7.38;4.57;;;15.00;99.90;;;;;;7401028;19;21157;-88
2021/09/17 06:34:42;;;;;;;12.40;5.07;;;14.80;99.90;;;;;;7400831;19;20310;-87
2021/09/17 06:37:13;;;;;;;6.78;4.63;;;14.70;99.90;;;;;;7402282;19;20106;-88
2021/09/17 06:39:45;;;;;;;7.82;5.47;;;14.80;99.90;;;;;;7397676;19;20019;-90
2021/09/17 06:42:15;;;;;;;8.27;5.05;;;14.90;99.90;;;;;;7403191;19;20333;-91
2021/09/17 06:44:51;;;;;;;8.15;5.40;;;14.80;99.90;;;;;;7406894;19;20006;-86
2021/09/17 06:50:10;;;;;;;10.32;5.93;;;14.60;99.90;;;;;;7399721;19;20321;-87
2021/09/17 06:52:40;;;;;;;11.27;6.22;;;14.60;99.90;;;;;;7399403;19;20082;-87
2021/09/17 06:55:10;;;;;;;9.27;6.93;;;14.80;99.90;;;;;;7400163;19;20018;-86
2021/09/17 06:57:48;;;;;;;12.10;7.07;;;15.00;99.90;;;;;;7400735;19;20022;-89
2021/09/17 07:00:22;;;;;;;15.73;7.68;;;15.00;99.90;;;;;;7402096;19;20616;-88
2021/09/17 07:02:54;;;;;;;13.73;8.38;;;15.10;99.90;;;;;;7402323;19;20523;-90
2021/09/17 07:05:24;;;;;;;10.38;7.10;;;15.10;99.90;;;;;;7399907;19;20017;-87
2021/09/17 07:08:00;;;;;;;14.20;8.50;;;14.90;99.90;;;;;;7399119;19;20025;-90
2021/09/17 07:10:31;;;;;;;13.25;8.38;;;15.00;99.90;;;;;;7397832;19;20021;-86
2021/09/17 07:13:01;;;;;;;16.08;8.85;;;14.90;99.90;;;;;;7407300;19;20301;-87
2021/09/17 07:15:33;;;;;;;12.57;8.60;;;14.90;99.90;;;;;;7401306;19;20027;-85
2021/09/17 07:18:06;;;;;;;15.20;8.15;;;14.80;99.90;;;;;;7399594;19;20014;-86
2021/09/17 07:20:50;;;;;;;10.15;6.35;;;14.90;99.90;;;;;;7401197;19;20026;-88
2021/09/17 07:23:22;;;;;;;13.52;5.70;;;14.90;99.90;;;;;;7406832;19;20030;-87
2021/09/17 07:25:53;;;;;;;11.93;6.40;;;14.80;99.90;;;;;;7409278;19;20010;-87
2021/09/17 07:28:22;;;;;;;6.22;4.18;;;14.80;99.90;;;;;;7408243;19;20030;-85
2021/09/17 07:30:54;;;;;;;8.75;4.15;;;14.80;99.90;;;;;;7406760;19;20341;-86
2021/09/17 07:33:23;;;;;;;6.30;4.30;;;14.70;99.90;;;;;;7405635;19;20480;-84
2021/09/17 07:35:53;;;;;;;10.00;5.82;;;14.80;99.90;;;;;;7408764;19;19999;-84
2021/09/17 07:38:22;;;;;;;10.60;5.68;;;14.80;99.90;;;;;;7405075;19;20022;-83
2021/09/17 07:40:52;;;;;;;8.85;5.70;;;14.90;99.90;;;;;;7404247;19;20011;-82
2021/09/17 07:43:22;;;;;;;11.25;7.22;;;15.00;99.90;;;;;;7402313;19;20019;-79
2021/09/17 07:45:54;;;;;;;9.73;6.30;;;15.20;99.90;;;;;;7402315;19;20420;-79
2021/09/17 07:48:24;;;;;;;14.85;8.10;;;15.50;99.90;;;;;;7401333;19;20018;-81
2021/09/17 07:50:53;;;;;;;9.35;6.68;;;15.70;99.90;;;;;;7407968;19;20101;-81
2021/09/17 07:53:25;;;;;;;12.00;6.53;;;15.80;99.90;;;;;;7404024;19;20010;-81
2021/09/17 07:55:56;;;;;;;11.85;7.00;;;16.00;99.90;;;;;;7402743;19;20478;-80
2021/09/17 07:58:34;;;;;;;11.40;6.20;;;16.00;99.90;;;;;;7404013;19;20015;-83
2021/09/17 08:01:06;;;;;;;9.07;5.75;;;16.10;99.90;;;;;;7403790;19;20500;-82
2021/09/17 08:03:35;;;;;;;9.30;4.47;;;16.00;99.90;;;;;;7403618;19;20019;-78
2021/09/17 08:06:06;;;;;;;11.40;5.07;;;16.00;99.90;;;;;;7403345;19;20289;-87
2021/09/17 08:08:35;;;;;;;8.20;3.90;;;16.00;99.90;;;;;;7399734;19;20018;-80
2021/09/17 08:11:05;;;;;;;6.63;3.55;;;16.00;99.90;;;;;;7404625;19;20019;-82
2021/09/17 08:13:37;;;;;;;4.82;3.17;;;16.10;99.90;;;;;;7401909;19;20029;-80
2021/09/17 08:16:09;;;;;;;8.43;3.75;;;16.20;99.90;;;;;;7398901;19;20018;-82
2021/09/17 08:18:38;;;;;;;6.03;3.28;;;16.20;99.90;;;;;;7402401;19;20022;-81
2021/09/17 08:21:08;;;;;;;5.50;3.22;;;16.10;99.90;;;;;;7401557;19;20440;-83
2021/09/17 08:23:37;;;;;;;6.20;3.08;;;16.20;99.90;;;;;;7402879;19;20011;-86
2021/09/17 08:26:07;;;;;;;8.20;2.72;;;16.30;99.90;;;;;;7404357;19;20072;-79
2021/09/17 08:28:37;;;;;;;6.72;3.00;;;16.40;99.90;;;;;;7404002;19;20428;-79
2021/09/17 08:31:13;;;;;;;5.50;2.65;;;16.60;99.90;;;;;;7401123;19;20098;-79
2021/09/17 08:34:00;;;;;;;5.32;2.40;;;16.70;99.90;;;;;;7399225;19;20014;-76
2021/09/17 08:36:53;;;;;;;6.03;2.55;;;16.70;99.90;;;;;;7401198;19;20018;-77
2021/09/17 08:39:33;;;;;;;5.28;2.35;;;16.90;99.90;;;;;;7399410;19;20021;-77
2021/09/17 08:42:17;;;;;;;6.65;2.47;;;17.00;99.90;;;;;;7400380;19;20344;-76
2021/09/17 08:44:48;;;;;;;6.93;2.10;;;17.20;99.90;;;;;;7400163;19;20021;-77
2021/09/17 08:47:26;;;;;;;5.78;2.10;;;17.30;99.90;;;;;;7402770;19;20048;-77
2021/09/17 08:49:58;;;;;;;4.05;2.00;;;17.30;99.90;;;;;;7400106;19;20013;-77
2021/09/17 08:52:28;;;;;;;6.55;2.22;;;17.50;99.90;;;;;;7401258;19;20010;-77
2021/09/17 08:54:58;;;;;;;6.13;2.05;;;17.50;99.90;;;;;;7399805;19;20077;-77
2021/09/17 08:57:28;;;;;;;5.70;1.98;;;17.50;99.90;;;;;;7401207;19;20022;-77
2021/09/17 08:59:57;;;;;;;3.67;2.10;;;17.50;99.90;;;;;;7398188;19;20022;-77
2021/09/17 09:02:31;;;;;;;3.33;1.75;;;17.50;99.90;;;;;;7400954;19;20003;-77
2021/09/17 09:05:02;;;;;;;3.92;1.67;;;17.80;99.90;;;;;;7399328;19;20018;-78
2021/09/17 09:07:38;;;;;;;5.38;2.03;;;17.80;99.90;;;;;;7399937;19;20014;-78
2021/09/17 09:10:10;;;;;;;4.57;1.80;;;18.00;99.90;;;;;;7399807;19;20006;-78
2021/09/17 09:12:44;;;;;;;5.18;2.00;;;18.00;99.90;;;;;;7400376;19;20034;-76
2021/09/17 09:15:18;;;;;;;6.13;1.88;;;18.00;99.90;;;;;;7399603;19;20010;-78
2021/09/17 09:17:51;;;;;;;4.45;2.22;;;18.20;99.90;;;;;;7399864;19;20443;-78
2021/09/17 09:20:31;;;;;;;9.43;2.45;;;18.30;99.90;;;;;;7396728;19;20018;-78
2021/09/17 09:23:28;;;;;;;6.25;2.75;;;18.30;99.90;;;;;;7398132;19;20070;-77
2021/09/17 09:26:00;;;;;;;6.72;1.85;;;18.50;99.90;;;;;;7400137;19;20034;-77
2021/09/17 09:28:32;;;;;;;4.38;1.92;;;18.30;99.90;;;;;;7399558;19;20010;-78
2021/09/17 09:31:10;;;;;;;4.13;2.22;;;18.20;99.90;;;;;;7401690;19;20301;-78
2021/09/17 09:33:44;;;;;;;4.60;2.67;;;18.00;99.90;;;;;;7398725;19;20443;-78
2021/09/17 09:36:16;;;;;;;5.38;2.50;;;17.80;99.90;;;;;;7400447;19;20090;-78
2021/09/17 09:38:47;;;;;;;3.80;2.00;;;17.80;99.90;;;;;;7401229;19;20014;-78
2021/09/17 09:41:21;;;;;;;5.22;1.95;;;17.80;99.90;;;;;;7403466;19;20021;-77
2021/09/17 09:43:54;;;;;;;4.78;1.80;;;17.70;99.90;;;;;;7402116;19;20011;-77
2021/09/17 09:46:29;;;;;;;5.03;1.63;;;17.60;99.90;;;;;;7403692;19;20016;-76
2021/09/17 09:49:22;;;;;;;4.05;1.63;;;17.60;99.90;;;;;;7399853;19;20375;-76
2021/09/17 09:51:57;;;;;;;5.32;1.98;;;17.60;99.90;;;;;;7398925;19;20022;-77
2021/09/17 09:54:29;;;;;;;6.22;2.00;;;17.60;99.90;;;;;;7399477;19;20127;-77
2021/09/17 09:57:05;;;;;;;6.50;2.05;;;17.60;99.90;;;;;;7401111;19;20007;-76
2021/09/17 09:59:37;;;;;;;5.40;1.83;;;17.60;99.90;;;;;;7398671;19;20049;-77
2021/09/17 10:02:08;;;;;;;4.20;1.80;;;17.80;99.90;;;;;;7397944;19;20026;-77
2021/09/17 10:04:45;;;;;;;3.40;1.60;;;18.00;99.90;;;;;;7398591;19;20023;-77
2021/09/17 10:07:15;;;;;;;4.63;1.83;;;18.40;99.90;;;;;;7397474;19;20018;-77
2021/09/17 10:09:49;;;;;;;6.25;2.30;;;18.80;99.90;;;;;;7396095;19;20333;-76
2021/09/17 10:12:18;;;;;;;5.25;2.20;;;19.10;99.90;;;;;;7397368;19;20086;-75
2021/09/17 10:14:50;;;;;;;5.65;1.98;;;19.40;99.90;;;;;;7396356;19;20018;-77
2021/09/17 10:17:24;;;;;;;4.68;1.90;;;19.30;99.90;;;;;;7397753;19;20014;-76
2021/09/17 10:19:57;;;;;;;3.45;1.73;;;19.10;99.90;;;;;;7394469;19;20025;-76
2021/09/17 10:22:32;;;;;;;3.70;1.50;;;19.00;99.90;;;;;;7396144;19;20082;-78
2021/09/17 10:25:17;;;;;;;3.70;1.48;;;18.80;99.90;;;;;;7396202;19;20018;-77
2021/09/17 10:27:48;;;;;;;8.63;1.92;;;18.60;99.90;;;;;;7397621;19;20409;-77
2021/09/17 10:30:18;;;;;;;7.30;2.00;;;18.60;99.90;;;;;;7397001;19;20021;-77
2021/09/17 10:32:52;;;;;;;3.33;1.05;;;18.60;99.90;;;;;;7398357;19;20326;-77
2021/09/17 10:35:27;;;;;;;5.22;1.40;;;18.60;99.90;;;;;;7399101;19;20106;-77
2021/09/17 10:38:18;;;;;;;4.63;1.20;;;18.80;99.90;;;;;;7396220;19;20022;-77
2021/09/17 10:40:55;;;;;;;4.60;0.98;;;18.80;99.90;;;;;;7395917;19;20108;-77
2021/09/17 10:43:32;;;;;;;4.78;1.40;;;19.40;99.60;;;;;;7395862;19;20326;-76
2021/09/17 10:46:08;;;;;;;5.07;1.25;;;20.20;99.80;;;;;;7399088;19;20106;-77
2021/09/17 10:49:00;;;;;;;3.78;1.35;;;21.60;98.10;;;;;;7393103;19;20309;-77
2021/09/17 10:51:34;;;;;;;3.90;1.40;;;23.10;94.90;;;;;;7397313;19;20034;-77
2021/09/17 10:54:10;;;;;;;8.57;1.40;;;23.90;91.70;;;;;;7397100;19;20125;-77
2021/09/17 10:57:06;;;;;;;2.78;1.30;;;24.10;87.20;;;;;;7393687;19;20027;-78
2021/09/17 10:59:47;;;;;;;2.88;1.48;;;23.30;88.70;;;;;;7397191;19;20025;-77
2021/09/17 11:02:17;;;;;;;2.28;1.20;;;22.70;89.50;;;;;;7403027;19;20002;-77
2021/09/17 11:04:50;;;;;;;3.97;1.52;;;21.90;88.30;;;;;;7421567;19;20023;-77
2021/09/17 11:07:42;;;;;;;4.47;1.20;;;21.40;88.40;;;;;;7421538;19;20090;-77
2021/09/17 11:10:26;;;;;;;5.68;1.00;;;21.20;89.50;;;;;;7406551;19;20023;-77
2021/09/17 11:13:08;;;;;;;2.10;0.93;;;20.70;90.20;;;;;;7396957;19;20106;-77
2021/09/17 11:15:38;;;;;;;6.57;1.40;;;20.50;90.90;;;;;;7398871;19;20086;-77
2021/09/17 11:18:20;;;;;;;4.47;1.27;;;20.40;91.10;;;;;;7396024;19;20458;-77
2021/09/17 11:20:49;;;;;;;3.30;1.20;;;20.20;90.70;;;;;;7394050;19;20115;-77
2021/09/17 11:23:21;;;;;;;4.55;1.17;;;20.10;91.20;;;;;;7396410;19;20040;-76
2021/09/17 11:26:01;;;;;;;4.72;1.27;;;20.10;90.90;;;;;;7400752;19;20018;-76
2021/09/17 11:28:31;;;;;;;2.88;1.15;;;20.00;90.90;;;;;;7402226;19;20018;-76
2021/09/17 11:31:11;;;;;;;7.40;1.20;;;19.80;90.90;;;;;;7405341;19;20014;-77
2021/09/17 11:33:43;;;;;;;7.47;1.23;;;19.80;90.80;;;;;;7400589;19;20023;-77
2021/09/17 11:36:14;;;;;;;6.10;0.98;;;19.60;90.90;;;;;;7395990;19;20026;-76
2021/09/17 11:38:46;;;;;;;2.88;1.00;;;19.40;91.10;;;;;;7395338;19;20488;-76
2021/09/17 11:41:15;;;;;;;3.67;1.45;;;19.20;91.90;;;;;;7392763;19;20011;-77
2021/09/17 11:43:50;;;;;;;2.35;0.80;;;19.20;91.90;;;;;;7393505;19;20019;-76
2021/09/17 11:46:27;;;;;;;5.18;1.20;;;19.20;92.30;;;;;;7395331;19;20018;-77
2021/09/17 11:49:00;;;;;;;4.13;1.30;;;19.40;92.40;;;;;;7392307;19;20026;-77
2021/09/17 11:51:32;;;;;;;2.03;0.80;;;19.40;92.10;;;;;;7394394;19;20010;-77
2021/09/17 11:54:04;;;;;;;8.35;1.20;;;19.60;92.40;;;;;;7395725;19;20014;-76
2021/09/17 11:56:36;;;;;;;4.00;0.95;;;19.80;92.10;;;;;;7395114;19;20029;-77
2021/09/17 11:59:05;;;;;;;4.07;1.30;;;19.90;91.90;;;;;;7395272;19;20006;-77
2021/09/17 12:01:34;;;;;;;3.38;1.20;;;19.80;92.10;;;;;;7392428;19;20074;-76
2021/09/17 12:04:04;;;;;;;6.72;1.60;;;19.80;92.50;;;;;;7397654;19;20022;-77
2021/09/17 12:06:34;;;;;;;5.43;1.67;;;19.70;93.40;;;;;;7394185;19;20085;-77
2021/09/17 12:09:06;;;;;;;5.57;1.40;;;19.30;94.30;;;;;;7398230;19;20054;-76
2021/09/17 12:11:37;;;;;;;4.22;1.60;;;19.00;95.40;;;;;;7402129;19;20010;-77
2021/09/17 12:14:10;;;;;;;3.40;1.33;;;18.80;95.90;;;;;;7403179;19;20006;-78
2021/09/17 12:16:48;;;;;;;5.38;1.60;;;18.70;96.40;;;;;;7404753;19;20029;-76
2021/09/17 12:19:20;;;;;;;4.55;1.98;;;18.60;96.90;;;;;;7407944;19;20015;-77
2021/09/17 12:22:01;;;;;;;4.60;1.88;;;18.70;97.20;;;;;;7402520;19;20018;-75
2021/09/17 12:24:33;;;;;;;7.68;1.50;;;18.80;97.10;;;;;;7400303;19;20085;-77
2021/09/17 12:27:03;;;;;;;3.83;1.60;;;18.80;96.70;;;;;;7392264;19;20010;-76
2021/09/17 12:29:32;;;;;;;3.50;1.95;;;18.90;97.10;;;;;;7396607;19;20010;-77
2021/09/17 12:32:16;;;;;;;8.20;1.73;;;19.00;97.20;;;;;;7400119;19;20021;-77
2021/09/17 12:35:04;;;;;;;4.63;1.67;;;19.10;96.50;;;;;;7398705;19;20014;-77
2021/09/17 12:37:34;;;;;;;6.13;1.80;;;19.20;96.20;;;;;;7396897;19;20033;-77
2021/09/17 12:40:18;;;;;;;3.28;1.80;;;19.50;96.10;;;;;;7395071;19;20022;-77
2021/09/17 12:42:59;;;;;;;7.70;2.03;;;19.70;95.70;;;;;;7396735;19;20014;-77
2021/09/17 12:45:34;;;;;;;4.55;1.80;;;19.90;95.00;;;;;;7400605;19;20022;-79
2021/09/17 12:48:06;;;;;;;5.28;1.98;;;20.00;95.00;;;;;;7399096;19;20081;-76
2021/09/17 12:50:40;;;;;;;7.80;1.80;;;20.40;94.80;;;;;;7396805;19;20065;-76
2021/09/17 12:53:16;;;;;;;5.93;1.73;;;21.20;92.80;;;;;;7398577;19;20010;-77
2021/09/17 12:55:49;;;;;;;6.07;1.73;;;21.50;91.80;;;;;;7396753;19;20014;-77
2021/09/17 12:58:20;;;;;;;6.10;2.55;;;21.00;91.90;;;;;;7400640;19;20018;-77
2021/09/17 13:00:52;;;;;;;3.83;1.70;;;20.50;92.00;;;;;;7397468;19;20014;-77
2021/09/17 13:03:23;;;;;;;5.13;2.10;;;20.00;93.60;;;;;;7398257;19;20305;-77
2021/09/17 13:05:56;;;;;;;8.32;2.15;;;19.60;94.20;;;;;;7400675;19;20014;-77
2021/09/17 13:08:33;;;;;;;3.15;1.48;;;19.30;95.00;;;;;;7402796;19;20011;-76
2021/09/17 13:11:10;;;;;;;8.32;1.50;;;19.20;95.70;;;;;;7399750;19;20021;-75
2021/09/17 13:13:39;;;;;;;4.18;1.65;;;19.10;95.60;;;;;;7399339;19;20444;-76
2021/09/17 13:16:08;;;;;;;4.85;1.50;;;19.00;94.90;;;;;;7398954;19;20026;-76
2021/09/17 13:18:38;;;;;;;3.97;1.77;;;19.00;94.70;;;;;;7395764;19;20021;-77